• Join FlightAware (Why Join?)
  • Login
  • US Flag 
10:37AM EDT


 

Airport Tracker/Info


-or-


 

Live Flight TrackerFlight Track Log ✈ GJS3701 ✈ 09-May-2013 ✈ KORD - KMSN

Flight Track Log - Related Links

Times and Time Zones

All times are in EDT time to prevent confusion due to time zone crossing. See the GJS3701 flight status page for this flight to view local times or setup timezone preferences in your user account.

Time Position Orientation Groundspeed Altitude Reporting Facility
EDT Latitude Longitude Course Direction KTS MPH feet Rate Location/Type
11:05PM 42.0000 -87.9500 340° North 180 207 2,200  Level Chicago TRACON
11:06PM 42.0667 -87.9333 11° North 234 269 4,700 2,220 Climbing Chicago TRACON
11:07PM 42.1333 -87.9000 20° North 274 315 6,700 1,620 Climbing Chicago TRACON
11:08PM 42.1497 -87.8792 43° Northeast 276 318 7,200 2,460 Climbing Chicago Center
11:09PM 42.3309 -88.0119 350° North  Level FlightAware Approximate
11:09PM 42.2400 -87.8292 22° Northeast 310 357 10,600  Level Chicago Center
11:10PM 42.4022 -88.0428 340° North  Level FlightAware Approximate
11:10PM 42.3256 -87.8364 356° North 310 357 13,200  Level Chicago Center
11:11PM 42.4081 -87.8381 359° North 325 374 14,000 360 Climbing Chicago Center
11:12PM 42.5144 -87.8392 360° North 327 376 14,000  Level Chicago Center
11:13PM 42.6119 -87.8392 360° North 346 398 14,000  Level Chicago Center
11:14PM 42.7117 -87.8447 358° North 357 411 14,000  Level Chicago Center
11:15PM 42.7644 -87.9511 304° West 337 388 14,000  Level Chicago Center
11:16PM 42.7975 -88.0786 289° West 353 406 14,000  Level Chicago Center
11:17PM 42.8333 -88.2094 291° West 367 422 14,000  Level Chicago Center
11:18PM 42.8714 -88.3444 291° West 378 435 14,000  Level Chicago Center
11:19PM 42.9081 -88.4783 291° West 378 435 14,000  Level Chicago Center
11:20PM 42.9436 -88.6072 291° West 366 421 14,000 -300 Level Chicago Center
11:21PM 42.9783 -88.7381 290° West 364 419 13,500 -1,080 Descending Chicago Center
11:22PM 43.0153 -88.8719 291° West 372 428 11,900 -1,680 Descending Chicago Center
11:23PM 43.0239 -89.0206 275° West 337 388 10,100 -1,560 Descending Chicago Center
11:24PM 43.0133 -89.1289 262° West 297 342 8,800 -1,500 Descending Chicago Center
11:25PM 42.9778 -89.2161 241° Southwest 265 305 7,100 -1,920 Descending Chicago Center
11:26PM 42.9431 -89.3019 241° Southwest 259 298 4,900 -2,040 Descending Chicago Center
11:27PM 42.9828 -89.3775 306° West 276 318 3,000 -1,860 Descending Chicago Center